NCAR-RAP Real-Time Weather Data

Output produced by METARs form (19 June 2019  11:04 UTC)
found at http://weather.rap.ucar.edu/surface/
 
KTOP 191053Z AUTO 00000KT 10SM BKN006 OVC019 19/18 A2975 RMK AO2 SLP069 T01940178
KTOP 191046Z AUTO 00000KT 10SM SCT006 OVC019 19/18 A2975 RMK AO2 T01890178
KTOP 190953Z AUTO 35005KT 9SM SCT019 OVC027 19/18 A2975 RMK AO2 SLP067 T01940178
KTOP 190907Z AUTO 34005KT 7SM SCT003 OVC019 19/18 A2976 RMK AO2 T01940183
KTOP 190853Z AUTO 22003KT 7SM OVC019 19/18 A2977 RMK AO2 SLP072 T01940183 58012
KTOP 190753Z AUTO 00000KT 10SM OVC017 19/18 A2978 RMK AO2 SLP077 T01940183
KTOP 190653Z AUTO 00000KT 10SM BKN018 19/18 A2981 RMK AO2 SLP085 T01890178
KTOP 190610Z AUTO 31003KT 10SM BKN015 19/18 A2980 RMK AO2 T01890178
KTOP 190553Z AUTO 31004KT 6SM BR CLR 19/18 A2980 RMK AO2 SLP084 60020 T01890178 10200 20189 402830178 58007
KTOP 190453Z AUTO 28004KT 10SM SCT017 BKN060 BKN080 19/18 A2983 RMK AO2 RAB03E10 SLP094 P0000 T01940183
KTOP 190353Z AUTO 00000KT 10SM FEW060 BKN090 OVC100 19/18 A2984 RMK AO2 SLP096 T01940183
KTOP 190253Z AUTO 34004KT 10SM BKN060 OVC095 19/18 A2983 RMK AO2 RAE29 SLP092 P0002 60020 T01940178 58002
KTOP 190153Z AUTO 11005KT 8SM -RA BKN070 OVC080 19/18 A2983 RMK AO2 LTG DSNT S SLP094 P0010 T01940183
KTOP 190053Z AUTO 02005KT 6SM -RA BR FEW040 BKN070 OVC090 20/18 A2984 RMK AO2 LTG DSNT SW AND W SLP097 P0008 T02000183
KTOP 182353Z 14005KT 10SM -RA OVC070 20/18 A2983 RMK AO2 SLP096 TH SW MOV E P0010 60013 T02000183 10272 20194 55020
KTOP 182351Z 14005KT 10SM -RA OVC070 20/18 A2983 RMK AO2 LTG DSNT SE TH SW MOV E P0010
KTOP 182336Z 14009KT 6SM VCTS RA BR BKN075 OVC095 19/18 A2983 RMK AO2 LTG DSNT SE TH SW MOV E P0007 T01940183
KTOP 182320Z 16006KT 8SM -RA BKN090 OVC110 20/18 A2984 RMK AO2 LTG DSNT S AND SW TH SW MOV E P0001 T02000178
KTOP 182305Z 30004KT 8SM VCTS -RA OVC100 20/18 A2985 RMK AO2 LTG DSNT E-SW TH SW MOV E P0000 T02000178
KTOP 182253Z 28008KT 10SM -RA BKN100 OVC120 20/18 A2987 RMK AO2 LTG DSNT SE AND S SLP110 TS W MOV E P0003 T02000178
KTOP 182229Z 27011G18KT 10SM -RA OVC110 20/18 A2988 RMK AO2 LTG DSNT S-W TS W MOV E P0002 T02000183
KTOP 182205Z 29008KT 10SM VCTS -RA FEW029 SCT085 OVC110 21/18 A2987 RMK AO2 LTG DSNT S-NW TS W MOV E P0000 T02060178
KTOP 182153Z 29012G21KT 10SM -RA FEW028 SCT040 OVC100 22/18 A2989 RMK AO2 LTG DSNT S AND SW RAB51 SLP115 TS W MOV E P0000 T02220178
KTOP 182053Z 12009KT 10SM FEW032 26/18 A2985 RMK AO2 LTG DSNT SW-NW SLP100 T02610178 56020
KTOP 181953Z 12008KT 10SM BKN033 27/18 A2987 RMK AO2 SLP106 T02670178
KTOP 181853Z 10009KT 10SM BKN030 BKN038 27/19 A2988 RMK AO2 SLP110 T02720194
KTOP 181753Z 11008G16KT 10SM SCT031 BKN045 27/19 A2991 RMK AO2 SLP120 T02720194 10283 20211 58010
KTOP 181653Z 05005KT 10SM FEW029 28/18 A2992 RMK AO2 SLP124 T02780183
KTOP 181615Z 12006KT 10SM FEW026 SCT032 BKN039 27/19 A2993 RMK AO2 T02670194
KTOP 181605Z 12006KT 10SM BKN025 BKN032 27/19 A2993 RMK AO2 T02670189
KTOP 181553Z 07005KT 10SM SCT025 BKN032 26/19 A2993 RMK AO2 SLP127 T02610189
KTOP 181453Z VRB05KT 10SM FEW017 26/20 A2994 RMK AO2 SLP130 T02560200 53002